createdAt,value
2017-10-04T00:00:12.452Z,0
2017-10-04T00:00:53.023Z,0
2017-10-04T00:01:33.601Z,0
2017-10-04T00:02:14.189Z,0
2017-10-04T00:02:54.817Z,0
2017-10-04T00:03:35.404Z,0
2017-10-04T00:04:16.011Z,0
2017-10-04T00:04:56.587Z,0
2017-10-04T00:05:37.173Z,0
2017-10-04T00:06:17.825Z,0
2017-10-04T00:06:58.421Z,0
2017-10-04T00:07:38.990Z,0
2017-10-04T00:08:19.547Z,0
2017-10-04T00:09:00.139Z,0
2017-10-04T00:09:40.711Z,0
2017-10-04T00:10:21.273Z,0
2017-10-04T00:11:01.867Z,0
2017-10-04T00:11:42.457Z,0
2017-10-04T00:12:23.032Z,0
2017-10-04T00:16:55.762Z,0
2017-10-04T00:17:36.384Z,0
2017-10-04T00:18:17.761Z,0
2017-10-04T00:18:58.331Z,0
2017-10-04T00:19:38.924Z,0
2017-10-04T00:20:19.502Z,0
2017-10-04T00:21:00.105Z,0
2017-10-04T00:21:40.684Z,0
2017-10-04T00:24:13.882Z,0
2017-10-04T00:24:54.488Z,0
2017-10-04T00:25:35.046Z,0
2017-10-04T00:26:15.662Z,0
2017-10-04T00:26:56.243Z,0
2017-10-04T00:27:36.841Z,0
2017-10-04T00:28:17.395Z,0
2017-10-04T00:28:59.786Z,0
2017-10-04T00:29:40.357Z,0
2017-10-04T00:30:23.901Z,0
2017-10-04T00:31:05.031Z,0
2017-10-04T00:31:45.610Z,0
2017-10-04T00:32:26.219Z,0
2017-10-04T00:33:06.801Z,0
2017-10-04T00:33:47.385Z,0
2017-10-04T00:34:28.022Z,0
2017-10-04T00:35:08.599Z,0
2017-10-04T00:35:49.178Z,0
2017-10-04T00:36:29.760Z,0
2017-10-04T00:37:10.341Z,0
2017-10-04T00:37:50.908Z,0
2017-10-04T00:38:31.485Z,0
2017-10-04T00:39:12.058Z,0
2017-10-04T00:39:52.631Z,0
2017-10-04T00:40:33.223Z,0
2017-10-04T00:41:13.813Z,0
2017-10-04T00:43:52.106Z,0
2017-10-04T00:44:32.678Z,0
2017-10-04T00:45:13.246Z,0
2017-10-04T00:45:53.816Z,0
2017-10-04T00:46:34.424Z,0
2017-10-04T00:47:14.984Z,0
2017-10-04T00:47:55.555Z,0
2017-10-04T00:48:36.122Z,0
2017-10-04T00:49:16.747Z,0
2017-10-04T00:49:57.314Z,0
2017-10-04T00:50:37.909Z,0
2017-10-04T00:51:18.607Z,0
2017-10-04T00:51:59.240Z,0
2017-10-04T00:52:39.909Z,0
2017-10-04T00:53:20.753Z,0
2017-10-04T00:54:01.433Z,0
2017-10-04T00:54:42.030Z,0
2017-10-04T00:55:22.586Z,0
2017-10-04T00:56:03.162Z,0
2017-10-04T00:56:43.779Z,0
2017-10-04T00:57:24.364Z,0
2017-10-04T00:58:04.955Z,0
2017-10-04T00:58:45.553Z,0
2017-10-04T00:59:26.157Z,0
2017-10-04T01:00:06.776Z,0
2017-10-04T01:00:47.368Z,0
2017-10-04T01:01:27.970Z,0
2017-10-04T01:02:08.555Z,0
2017-10-04T01:02:49.120Z,0
2017-10-04T01:03:29.707Z,0
2017-10-04T01:04:10.335Z,0
2017-10-04T01:04:50.901Z,0
2017-10-04T01:05:31.517Z,0
2017-10-04T01:06:12.363Z,0
2017-10-04T01:06:52.926Z,0
2017-10-04T01:07:33.617Z,0
2017-10-04T01:08:14.377Z,0
2017-10-04T01:08:55.106Z,0
2017-10-04T01:09:35.703Z,0
2017-10-04T01:10:16.289Z,0
2017-10-04T01:10:56.887Z,0
2017-10-04T01:11:37.501Z,0
2017-10-04T01:12:18.111Z,0
2017-10-04T01:12:58.720Z,0
2017-10-04T01:13:39.285Z,0
2017-10-04T01:14:19.886Z,0
2017-10-04T01:15:00.482Z,0
2017-10-04T01:15:41.073Z,0
2017-10-04T01:16:21.658Z,0
2017-10-04T01:17:02.266Z,0
2017-10-04T01:17:42.894Z,0
2017-10-04T01:18:23.467Z,0
2017-10-04T01:19:04.037Z,0
2017-10-04T01:19:44.654Z,0
2017-10-04T01:20:25.241Z,0
2017-10-04T01:21:05.841Z,0
2017-10-04T01:23:44.805Z,0
2017-10-04T01:24:25.439Z,0
2017-10-04T01:25:06.000Z,0
2017-10-04T01:25:46.573Z,0
2017-10-04T01:26:27.154Z,0
2017-10-04T01:27:07.718Z,0
2017-10-04T01:27:54.619Z,0
2017-10-04T01:28:35.212Z,0
2017-10-04T01:29:17.608Z,0
2017-10-04T01:29:58.220Z,0
2017-10-04T01:30:43.311Z,0
2017-10-04T01:31:23.876Z,0
2017-10-04T01:32:04.434Z,0
2017-10-04T01:32:45.025Z,0
2017-10-04T01:33:25.602Z,0
2017-10-04T01:34:06.233Z,0
2017-10-04T01:34:46.826Z,0
2017-10-04T01:35:27.385Z,0
2017-10-04T01:36:07.973Z,0
2017-10-04T01:36:48.669Z,0
2017-10-04T01:37:29.191Z,0
2017-10-04T01:38:09.768Z,0
2017-10-04T01:38:50.357Z,0
2017-10-04T01:39:30.913Z,0
2017-10-04T01:40:11.565Z,0
2017-10-04T01:40:52.164Z,0
2017-10-04T01:41:32.757Z,0
2017-10-04T01:42:13.327Z,0
2017-10-04T01:42:53.907Z,0
2017-10-04T01:43:34.482Z,0
2017-10-04T01:44:17.729Z,0
2017-10-04T01:44:58.344Z,0
2017-10-04T01:45:38.940Z,0
2017-10-04T01:46:19.537Z,0
2017-10-04T01:47:00.139Z,0
2017-10-04T01:47:40.710Z,0
2017-10-04T01:48:21.276Z,0
2017-10-04T01:49:01.857Z,0
2017-10-04T01:49:42.421Z,0
2017-10-04T01:50:22.993Z,0
2017-10-04T01:51:03.566Z,0
2017-10-04T01:53:21.522Z,0
2017-10-04T01:54:02.113Z,0
2017-10-04T01:54:42.690Z,0
2017-10-04T01:55:23.280Z,0
2017-10-04T01:56:03.877Z,0
2017-10-04T01:56:44.459Z,0
2017-10-04T01:57:25.064Z,0
2017-10-04T01:58:05.653Z,0
2017-10-04T01:58:46.200Z,0
2017-10-04T01:59:26.785Z,0
2017-10-04T02:00:07.372Z,0
2017-10-04T02:00:47.938Z,0
2017-10-04T02:01:28.530Z,0
2017-10-04T02:02:09.142Z,0
2017-10-04T02:02:49.713Z,0
2017-10-04T02:03:30.287Z,0
2017-10-04T02:04:10.919Z,0
2017-10-04T02:04:51.494Z,0
2017-10-04T02:05:32.087Z,0
2017-10-04T02:06:12.680Z,0
2017-10-04T02:06:53.266Z,0
2017-10-04T02:07:33.840Z,0
2017-10-04T02:08:14.457Z,0
2017-10-04T02:08:55.018Z,0
2017-10-04T02:09:35.595Z,0
2017-10-04T02:10:16.191Z,0
2017-10-04T02:10:56.797Z,0
2017-10-04T02:11:37.413Z,0
2017-10-04T02:12:17.990Z,0
2017-10-04T02:12:58.579Z,0
2017-10-04T02:13:39.237Z,0
2017-10-04T02:14:19.797Z,0
2017-10-04T02:15:00.374Z,0
2017-10-04T02:15:41.066Z,0
2017-10-04T02:16:21.630Z,0
2017-10-04T02:17:02.210Z,0
2017-10-04T02:17:42.769Z,0
2017-10-04T02:18:23.374Z,0
2017-10-04T02:19:03.966Z,0
2017-10-04T02:19:44.580Z,0
2017-10-04T02:21:57.877Z,0
2017-10-04T02:22:43.182Z,0
2017-10-04T02:23:23.805Z,0
2017-10-04T02:24:05.188Z,0
2017-10-04T02:24:45.785Z,0
2017-10-04T02:25:26.404Z,0
2017-10-04T02:26:07.001Z,0
2017-10-04T02:26:47.580Z,0
2017-10-04T02:27:28.156Z,0
2017-10-04T02:28:08.713Z,0
2017-10-04T02:28:49.278Z,0
2017-10-04T02:29:29.836Z,0
2017-10-04T02:30:10.409Z,0
2017-10-04T02:30:50.973Z,0
2017-10-04T02:31:31.589Z,0
2017-10-04T02:32:12.163Z,0
2017-10-04T02:32:52.738Z,0
2017-10-04T02:33:33.344Z,0
2017-10-04T02:34:13.878Z,0
2017-10-04T02:34:54.476Z,0
2017-10-04T02:35:45.894Z,0
2017-10-04T02:36:26.457Z,0
2017-10-04T02:37:07.040Z,0
2017-10-04T02:37:47.622Z,0
2017-10-04T02:38:28.230Z,0
2017-10-04T02:40:41.548Z,0
2017-10-04T02:41:22.148Z,0
2017-10-04T02:42:02.976Z,0
2017-10-04T02:42:54.216Z,0
2017-10-04T02:43:34.837Z,0
2017-10-04T02:44:15.421Z,0
2017-10-04T02:44:56.018Z,0
2017-10-04T02:45:41.252Z,0
2017-10-04T02:46:21.828Z,0
2017-10-04T02:47:02.415Z,0
2017-10-04T02:47:43.118Z,0
2017-10-04T02:48:23.612Z,0
2017-10-04T02:50:36.424Z,0
2017-10-04T02:51:17.056Z,0
2017-10-04T02:52:02.655Z,0
2017-10-04T02:52:43.280Z,0
2017-10-04T02:53:23.874Z,0
2017-10-04T02:54:09.749Z,0
2017-10-04T02:54:51.890Z,0
2017-10-04T02:55:32.463Z,0
2017-10-04T02:56:17.701Z,0
2017-10-04T02:56:58.309Z,0
2017-10-04T02:57:38.932Z,0
2017-10-04T02:58:19.542Z,0
2017-10-04T02:59:02.097Z,0
2017-10-04T02:59:42.701Z,0
2017-10-04T03:00:27.900Z,0
2017-10-04T03:01:09.960Z,0
2017-10-04T03:01:50.605Z,0
2017-10-04T03:02:31.220Z,0
2017-10-04T03:03:11.839Z,0
2017-10-04T03:03:52.455Z,0
2017-10-04T03:04:33.076Z,0
2017-10-04T03:05:13.659Z,0
2017-10-04T03:05:56.942Z,0
2017-10-04T03:06:37.564Z,0
2017-10-04T03:07:18.158Z,0
2017-10-04T03:07:58.781Z,0
2017-10-04T03:08:39.379Z,0
2017-10-04T03:09:19.955Z,0
2017-10-04T03:10:01.450Z,0
2017-10-04T03:10:42.066Z,0
2017-10-04T03:11:22.692Z,0
2017-10-04T03:12:07.968Z,0
2017-10-04T03:12:48.604Z,0
2017-10-04T03:13:33.772Z,0
2017-10-04T03:14:21.756Z,0
2017-10-04T03:15:02.361Z,0
2017-10-04T03:15:43.030Z,0
2017-10-04T03:16:23.620Z,0
2017-10-04T03:17:04.216Z,0
2017-10-04T03:17:44.785Z,0
2017-10-04T03:18:25.366Z,0
2017-10-04T03:19:05.945Z,0
2017-10-04T03:19:46.525Z,0
2017-10-04T03:20:27.090Z,0
2017-10-04T03:21:07.683Z,0
2017-10-04T03:21:48.278Z,0
2017-10-04T03:22:28.855Z,0
2017-10-04T03:23:09.462Z,0
2017-10-04T03:23:50.078Z,0
2017-10-04T03:24:30.708Z,0
2017-10-04T03:25:11.294Z,0
2017-10-04T03:25:51.884Z,0
2017-10-04T03:26:32.536Z,0
2017-10-04T03:27:13.111Z,0
2017-10-04T03:27:53.696Z,0
2017-10-04T03:28:34.289Z,0
2017-10-04T03:29:19.777Z,0
2017-10-04T03:30:03.744Z,0
2017-10-04T03:30:44.335Z,0
2017-10-04T03:31:27.477Z,0
2017-10-04T03:32:08.108Z,0
2017-10-04T03:32:50.355Z,0
2017-10-04T03:33:30.969Z,0
2017-10-04T03:34:11.532Z,0
2017-10-04T03:34:52.108Z,0
2017-10-04T03:35:32.724Z,0
2017-10-04T03:36:13.349Z,0
2017-10-04T03:36:53.939Z,0
2017-10-04T03:37:35.493Z,0
2017-10-04T03:38:16.075Z,0
2017-10-04T03:38:57.337Z,0
2017-10-04T03:39:41.454Z,0
2017-10-04T03:40:22.021Z,0
2017-10-04T03:41:03.048Z,0
2017-10-04T03:41:43.540Z,0
2017-10-04T03:42:24.111Z,0
2017-10-04T03:43:04.701Z,0
2017-10-04T03:43:45.290Z,0
2017-10-04T03:44:25.893Z,0
2017-10-04T03:45:06.474Z,0
2017-10-04T03:45:48.755Z,0
2017-10-04T03:46:30.946Z,0
2017-10-04T03:47:11.564Z,0
2017-10-04T03:47:52.157Z,0
2017-10-04T03:48:32.774Z,0
2017-10-04T03:49:13.354Z,0
2017-10-04T03:49:53.941Z,0
2017-10-04T03:50:36.482Z,0
2017-10-04T03:51:17.085Z,0
2017-10-04T03:51:57.697Z,0
2017-10-04T03:52:38.231Z,0
2017-10-04T03:53:18.795Z,0
2017-10-04T03:53:59.401Z,0
2017-10-04T03:54:39.996Z,0
2017-10-04T03:55:20.741Z,0
2017-10-04T03:56:05.846Z,0
2017-10-04T03:56:46.423Z,0
2017-10-04T03:57:27.015Z,0
2017-10-04T03:58:07.602Z,0
2017-10-04T03:58:50.718Z,0
2017-10-04T03:59:31.353Z,0
2017-10-04T04:00:13.757Z,0
2017-10-04T04:00:54.371Z,0
2017-10-04T04:01:36.806Z,0
2017-10-04T04:02:17.376Z,0
2017-10-04T04:02:57.946Z,0
2017-10-04T04:03:38.549Z,0
2017-10-04T04:04:19.128Z,0
2017-10-04T04:05:00.481Z,0
2017-10-04T04:05:41.234Z,0
2017-10-04T04:06:21.800Z,0
2017-10-04T04:07:02.389Z,0
2017-10-04T04:07:42.985Z,0
2017-10-04T04:08:23.575Z,0
2017-10-04T04:09:04.155Z,0
2017-10-04T04:09:44.714Z,0
2017-10-04T04:10:25.289Z,0
2017-10-04T04:11:05.855Z,0
2017-10-04T04:11:46.450Z,0
2017-10-04T04:12:27.013Z,0
2017-10-04T04:13:08.351Z,0
2017-10-04T04:13:48.930Z,0
2017-10-04T04:14:29.500Z,0
2017-10-04T04:15:10.081Z,0
2017-10-04T04:15:50.651Z,0
2017-10-04T04:16:31.239Z,0
2017-10-04T04:17:11.804Z,0
2017-10-04T04:17:52.380Z,0
2017-10-04T04:18:32.954Z,0
2017-10-04T04:19:13.578Z,0
2017-10-04T04:19:54.142Z,0
2017-10-04T04:20:34.714Z,0
2017-10-04T04:21:15.311Z,0
2017-10-04T04:21:55.858Z,0
2017-10-04T04:22:36.428Z,0
2017-10-04T04:23:17.005Z,0
2017-10-04T04:23:57.783Z,0
2017-10-04T04:24:38.166Z,0
2017-10-04T04:25:18.752Z,0
2017-10-04T04:25:59.327Z,0
2017-10-04T04:26:39.918Z,0
2017-10-04T04:27:20.489Z,0
2017-10-04T04:28:01.045Z,0
2017-10-04T04:28:41.617Z,0
2017-10-04T04:29:22.189Z,0
2017-10-04T04:30:02.810Z,0
2017-10-04T04:30:43.404Z,0
2017-10-04T04:31:23.966Z,0
2017-10-04T04:32:04.544Z,0
2017-10-04T04:32:45.125Z,0
2017-10-04T04:33:25.737Z,0
2017-10-04T04:34:06.297Z,0
2017-10-04T04:34:46.884Z,0
2017-10-04T04:35:27.503Z,0
2017-10-04T04:36:08.092Z,0
2017-10-04T04:36:48.674Z,0
2017-10-04T04:37:29.289Z,0
2017-10-04T04:38:09.893Z,0
2017-10-04T04:38:50.471Z,0
2017-10-04T04:39:31.053Z,0
2017-10-04T04:40:11.640Z,0
2017-10-04T04:40:52.221Z,0
2017-10-04T04:41:32.805Z,0
2017-10-04T04:42:13.398Z,0
2017-10-04T04:42:53.986Z,0
2017-10-04T04:43:34.572Z,0
2017-10-04T04:44:15.168Z,0
2017-10-04T04:44:55.727Z,0
2017-10-04T04:45:36.319Z,0
2017-10-04T04:46:16.911Z,0
2017-10-04T04:46:57.521Z,0
2017-10-04T04:47:38.136Z,0
2017-10-04T04:48:18.766Z,0
2017-10-04T04:48:59.357Z,0
2017-10-04T04:49:39.994Z,0
2017-10-04T04:50:20.548Z,0
2017-10-04T04:51:01.218Z,0
2017-10-04T04:51:41.751Z,0
2017-10-04T04:52:22.368Z,0
2017-10-04T04:53:02.955Z,0
2017-10-04T04:53:43.563Z,0
2017-10-04T04:54:24.204Z,0
2017-10-04T04:55:04.791Z,0
2017-10-04T04:55:45.364Z,0
2017-10-04T04:56:26.017Z,0
2017-10-04T04:57:06.634Z,0
2017-10-04T04:57:47.200Z,0
2017-10-04T04:58:27.762Z,0
2017-10-04T04:59:08.337Z,0
2017-10-04T04:59:49.057Z,0
2017-10-04T05:00:29.703Z,0
2017-10-04T05:01:10.302Z,0
2017-10-04T05:01:50.858Z,0
2017-10-04T05:02:31.542Z,0
2017-10-04T05:03:12.136Z,0
2017-10-04T05:03:52.710Z,0
2017-10-04T05:04:33.287Z,0
2017-10-04T05:05:13.846Z,0
2017-10-04T05:05:54.435Z,0
2017-10-04T05:06:35.008Z,0
2017-10-04T05:07:15.580Z,0
2017-10-04T05:07:56.174Z,0
2017-10-04T05:08:36.748Z,0
2017-10-04T05:09:17.323Z,0
2017-10-04T05:09:57.942Z,0
2017-10-04T05:10:38.484Z,0
2017-10-04T05:11:19.069Z,0
2017-10-04T05:11:59.638Z,0
2017-10-04T05:12:40.303Z,0
2017-10-04T05:13:20.894Z,0
2017-10-04T05:14:01.463Z,0
2017-10-04T05:14:42.057Z,0
2017-10-04T05:15:22.623Z,0
2017-10-04T05:16:03.277Z,0
2017-10-04T05:16:43.835Z,0
2017-10-04T05:17:24.416Z,0
2017-10-04T05:18:05.000Z,0
2017-10-04T05:18:45.567Z,0
2017-10-04T05:19:26.140Z,0
2017-10-04T05:20:06.774Z,0
2017-10-04T05:20:47.353Z,0
2017-10-04T05:21:27.957Z,0
2017-10-04T05:22:08.566Z,0
2017-10-04T05:22:49.157Z,0
2017-10-04T05:23:29.725Z,0
2017-10-04T05:24:10.295Z,0
2017-10-04T05:24:50.921Z,0
2017-10-04T05:25:31.504Z,0
2017-10-04T05:26:12.100Z,0
2017-10-04T05:26:52.692Z,0
2017-10-04T05:27:33.300Z,0
2017-10-04T05:28:13.880Z,5
2017-10-04T05:28:54.478Z,5
2017-10-04T05:29:35.065Z,5
2017-10-04T05:30:15.665Z,5
2017-10-04T05:30:56.237Z,5
2017-10-04T05:31:36.830Z,5
2017-10-04T05:32:17.403Z,5
2017-10-04T05:32:57.981Z,5
2017-10-04T05:33:38.643Z,5
2017-10-04T05:34:19.233Z,5
2017-10-04T05:34:59.824Z,5
2017-10-04T05:35:40.405Z,5
2017-10-04T05:36:21.011Z,5
2017-10-04T05:37:01.592Z,5
2017-10-04T05:37:42.219Z,5
2017-10-04T05:38:22.784Z,5
2017-10-04T05:39:03.355Z,5
2017-10-04T05:39:43.946Z,5
2017-10-04T05:40:24.533Z,5
2017-10-04T05:41:05.126Z,5
2017-10-04T05:41:45.701Z,5
2017-10-04T05:42:26.286Z,5
2017-10-04T05:43:06.854Z,5
2017-10-04T05:43:47.427Z,5
2017-10-04T05:44:28.012Z,5
2017-10-04T05:45:08.582Z,5
2017-10-04T05:45:49.151Z,5
2017-10-04T05:46:29.727Z,5
2017-10-04T05:47:10.297Z,5
2017-10-04T05:47:50.873Z,5
2017-10-04T05:48:31.445Z,5
2017-10-04T05:49:12.029Z,10
2017-10-04T05:49:52.624Z,10
2017-10-04T05:50:33.244Z,10
2017-10-04T05:51:13.818Z,10
2017-10-04T05:51:54.384Z,10
2017-10-04T05:52:34.987Z,10
2017-10-04T05:53:15.560Z,10
2017-10-04T05:53:56.128Z,10
2017-10-04T05:54:36.766Z,10
2017-10-04T05:55:17.342Z,10
2017-10-04T05:55:57.949Z,10
2017-10-04T05:56:38.560Z,10
2017-10-04T05:57:19.155Z,15
2017-10-04T05:57:59.719Z,15
2017-10-04T05:58:40.320Z,15
2017-10-04T05:59:20.889Z,15
2017-10-04T06:00:01.464Z,15
2017-10-04T06:00:42.032Z,15
2017-10-04T06:01:22.629Z,15
2017-10-04T06:02:03.277Z,15
2017-10-04T06:02:43.871Z,15
2017-10-04T06:03:24.502Z,15
2017-10-04T06:04:05.085Z,15
2017-10-04T06:04:45.685Z,15
2017-10-04T06:05:26.311Z,15
2017-10-04T06:06:06.908Z,15
2017-10-04T06:06:47.510Z,15
2017-10-04T06:07:28.119Z,20
2017-10-04T06:08:08.685Z,20
2017-10-04T06:08:49.259Z,15
2017-10-04T06:09:29.827Z,15
2017-10-04T06:10:10.519Z,15
2017-10-04T06:10:51.141Z,15
2017-10-04T06:11:31.724Z,15
2017-10-04T06:12:12.320Z,20
2017-10-04T06:12:52.920Z,20
2017-10-04T06:13:33.549Z,20
2017-10-04T06:14:14.173Z,25
2017-10-04T06:14:54.771Z,25
2017-10-04T06:15:35.428Z,35
2017-10-04T06:16:16.020Z,35
2017-10-04T06:16:56.614Z,40
2017-10-04T06:17:37.280Z,40
2017-10-04T06:18:17.918Z,45
2017-10-04T06:18:58.504Z,45
2017-10-04T06:19:39.156Z,50
2017-10-04T06:20:19.728Z,50
2017-10-04T06:21:00.304Z,50
2017-10-04T06:21:40.995Z,45
2017-10-04T06:22:21.593Z,45
2017-10-04T06:23:02.170Z,40
2017-10-04T06:23:42.734Z,40
2017-10-04T06:24:23.338Z,40
2017-10-04T06:25:03.933Z,40
2017-10-04T06:25:44.496Z,35
2017-10-04T06:26:25.061Z,40
2017-10-04T06:27:05.654Z,40
2017-10-04T06:27:46.244Z,45
2017-10-04T06:28:26.849Z,45
2017-10-04T06:29:07.460Z,45
2017-10-04T06:29:48.254Z,50
2017-10-04T06:30:28.789Z,50
2017-10-04T06:31:09.433Z,50
2017-10-04T06:31:50.056Z,50
2017-10-04T06:32:30.657Z,50
2017-10-04T06:33:11.248Z,50
2017-10-04T06:33:51.897Z,50
2017-10-04T06:34:32.457Z,50
2017-10-04T06:35:13.056Z,50
2017-10-04T06:35:53.901Z,50
2017-10-04T06:36:34.473Z,55
2017-10-04T06:37:15.297Z,55
2017-10-04T06:37:55.855Z,50
2017-10-04T06:38:36.445Z,50
2017-10-04T06:39:17.151Z,50
2017-10-04T06:39:58.015Z,50
2017-10-04T06:40:38.607Z,50
2017-10-04T06:41:19.452Z,50
2017-10-04T06:42:00.325Z,50
2017-10-04T06:42:40.901Z,45
2017-10-04T06:43:21.543Z,45
2017-10-04T06:44:02.160Z,40
2017-10-04T06:44:43.395Z,35
2017-10-04T06:45:24.051Z,35
2017-10-04T06:46:04.680Z,35
2017-10-04T06:46:45.311Z,35
2017-10-04T06:47:25.923Z,35
2017-10-04T06:48:06.532Z,30
2017-10-04T06:48:47.127Z,30
2017-10-04T06:49:27.708Z,30
2017-10-04T06:50:08.303Z,30
2017-10-04T06:50:49.080Z,30
2017-10-04T06:51:29.669Z,30
2017-10-04T06:52:10.252Z,30
2017-10-04T06:52:50.820Z,30
2017-10-04T06:53:31.412Z,30
2017-10-04T06:54:12.036Z,30
2017-10-04T06:54:52.632Z,30
2017-10-04T06:55:33.215Z,30
2017-10-04T06:56:13.827Z,30
2017-10-04T06:56:54.467Z,30
2017-10-04T06:57:35.064Z,30
2017-10-04T06:58:15.666Z,30
2017-10-04T06:58:56.349Z,30
2017-10-04T06:59:36.980Z,30
2017-10-04T07:00:17.630Z,30
2017-10-04T07:00:58.194Z,30
2017-10-04T07:01:38.819Z,30
2017-10-04T07:02:19.400Z,30
2017-10-04T07:03:00.058Z,30
2017-10-04T07:03:40.669Z,30
2017-10-04T07:04:21.245Z,30
2017-10-04T07:05:01.810Z,35
2017-10-04T07:05:42.448Z,35
2017-10-04T07:06:23.035Z,35
2017-10-04T07:07:03.691Z,35
2017-10-04T07:07:44.300Z,35
2017-10-04T07:08:24.927Z,35
2017-10-04T07:09:05.619Z,35
2017-10-04T07:09:46.163Z,35
2017-10-04T07:10:26.729Z,35
2017-10-04T07:11:07.362Z,35
2017-10-04T07:11:47.950Z,35
2017-10-04T07:12:28.562Z,35
2017-10-04T07:13:09.222Z,35
2017-10-04T07:13:49.807Z,35
2017-10-04T07:14:30.474Z,40
2017-10-04T07:15:11.104Z,40
2017-10-04T07:15:51.673Z,40
2017-10-04T07:16:32.289Z,45
2017-10-04T07:17:12.945Z,45
2017-10-04T07:17:53.516Z,50
2017-10-04T07:18:34.115Z,55
2017-10-04T07:19:14.833Z,55
2017-10-04T07:19:55.508Z,55
2017-10-04T07:20:36.202Z,55
2017-10-04T07:21:16.857Z,55
2017-10-04T07:21:57.497Z,55
2017-10-04T07:22:38.207Z,50
2017-10-04T07:23:18.849Z,50
2017-10-04T07:23:59.477Z,50
2017-10-04T07:24:40.069Z,50
2017-10-04T07:25:20.682Z,50
2017-10-04T07:26:01.278Z,50
2017-10-04T07:26:41.895Z,55
2017-10-04T07:27:22.518Z,55
2017-10-04T07:28:03.134Z,55
2017-10-04T07:28:43.741Z,55
2017-10-04T07:29:24.296Z,70
2017-10-04T07:30:04.921Z,75
2017-10-04T07:30:45.520Z,80
2017-10-04T07:31:26.116Z,80
2017-10-04T07:32:06.736Z,80
2017-10-04T07:32:47.333Z,85
2017-10-04T07:33:28.122Z,80
2017-10-04T07:34:08.711Z,70
2017-10-04T07:34:49.338Z,55
2017-10-04T07:35:29.984Z,55
2017-10-04T07:36:10.555Z,55
2017-10-04T07:36:51.160Z,55
2017-10-04T07:37:31.780Z,60
2017-10-04T07:38:12.407Z,65
2017-10-04T07:38:53.009Z,65
2017-10-04T07:39:33.615Z,70
2017-10-04T07:40:14.194Z,85
2017-10-04T07:40:54.804Z,110
2017-10-04T07:41:35.420Z,155
2017-10-04T07:42:16.009Z,235
2017-10-04T07:42:56.623Z,395
2017-10-04T07:43:37.266Z,215
2017-10-04T07:44:18.162Z,115
2017-10-04T07:44:58.786Z,85
2017-10-04T07:45:39.565Z,70
2017-10-04T07:46:20.109Z,65
2017-10-04T07:47:00.684Z,60
2017-10-04T07:47:41.384Z,60
2017-10-04T07:48:21.938Z,60
2017-10-04T07:49:02.493Z,70
2017-10-04T07:49:43.152Z,75
2017-10-04T07:50:23.703Z,85
2017-10-04T07:51:04.281Z,105
2017-10-04T07:51:44.844Z,105
2017-10-04T07:52:25.413Z,100
2017-10-04T07:53:06.038Z,90
2017-10-04T07:53:46.575Z,105
2017-10-04T07:54:27.173Z,110
2017-10-04T07:55:07.772Z,325
2017-10-04T07:55:48.358Z,550
2017-10-04T07:56:28.964Z,620
2017-10-04T07:57:09.539Z,300
2017-10-04T07:57:50.137Z,120
2017-10-04T07:58:30.736Z,110
2017-10-04T07:59:11.316Z,110
2017-10-04T07:59:52.098Z,115
2017-10-04T08:00:32.712Z,90
2017-10-04T08:01:13.342Z,60
2017-10-04T08:01:53.924Z,55
2017-10-04T08:02:34.581Z,55
2017-10-04T08:03:15.222Z,55
2017-10-04T08:03:55.865Z,45
2017-10-04T08:04:36.465Z,40
2017-10-04T08:05:17.208Z,50
2017-10-04T08:05:57.825Z,60
2017-10-04T08:06:38.432Z,60
2017-10-04T08:07:19.072Z,65
2017-10-04T08:07:59.676Z,60
2017-10-04T08:08:40.287Z,75
2017-10-04T08:09:20.928Z,75
2017-10-04T08:10:01.530Z,75
2017-10-04T08:10:42.106Z,75
2017-10-04T08:11:22.706Z,75
2017-10-04T08:12:03.368Z,70
2017-10-04T08:12:44.209Z,75
2017-10-04T08:13:24.814Z,90
2017-10-04T08:14:05.424Z,70
2017-10-04T08:14:46.027Z,45
2017-10-04T08:15:26.626Z,40
2017-10-04T08:16:07.241Z,45
2017-10-04T08:16:47.855Z,65
2017-10-04T08:17:28.429Z,65
2017-10-04T08:18:09.042Z,60
2017-10-04T08:18:49.645Z,55
2017-10-04T08:19:30.239Z,60
2017-10-04T08:20:10.851Z,55
2017-10-04T08:20:51.464Z,50
2017-10-04T08:21:32.076Z,50
2017-10-04T08:22:12.701Z,45
2017-10-04T08:22:53.254Z,50
2017-10-04T08:23:33.858Z,50
2017-10-04T08:24:14.443Z,55
2017-10-04T08:24:55.064Z,65
2017-10-04T08:25:35.719Z,80
2017-10-04T08:26:16.322Z,105
2017-10-04T08:26:56.914Z,110
2017-10-04T08:27:37.507Z,120
2017-10-04T08:28:18.111Z,125
2017-10-04T08:28:58.740Z,130
2017-10-04T08:29:39.338Z,115
2017-10-04T08:30:20.046Z,110
2017-10-04T08:31:00.567Z,110
2017-10-04T08:31:41.156Z,100
2017-10-04T08:32:21.773Z,90
2017-10-04T08:33:02.367Z,80
2017-10-04T08:33:42.987Z,90
2017-10-04T08:34:23.561Z,110
2017-10-04T08:35:04.204Z,110
2017-10-04T08:35:44.958Z,100
2017-10-04T08:36:25.550Z,90
2017-10-04T08:37:06.147Z,95
2017-10-04T08:37:46.750Z,100
2017-10-04T08:38:27.393Z,100
2017-10-04T08:39:08.000Z,105
2017-10-04T08:39:48.590Z,105
2017-10-04T08:40:29.241Z,110
2017-10-04T08:41:09.808Z,115
2017-10-04T08:41:50.405Z,120
2017-10-04T08:42:31.038Z,125
2017-10-04T08:43:11.688Z,110
2017-10-04T08:43:52.289Z,105
2017-10-04T08:44:32.871Z,100
2017-10-04T08:45:13.479Z,90
2017-10-04T08:45:54.077Z,75
2017-10-04T08:46:34.892Z,65
2017-10-04T08:47:15.470Z,55
2017-10-04T08:47:56.048Z,50
2017-10-04T08:48:36.743Z,50
2017-10-04T08:49:17.881Z,50
2017-10-04T08:49:58.506Z,55
2017-10-04T08:50:39.141Z,50
2017-10-04T08:51:19.733Z,50
2017-10-04T08:52:00.344Z,55
2017-10-04T08:52:41.053Z,65
2017-10-04T08:53:21.640Z,70
2017-10-04T08:54:02.214Z,70
2017-10-04T08:54:42.799Z,70
2017-10-04T08:55:23.372Z,75
2017-10-04T08:56:03.981Z,75
2017-10-04T08:56:44.570Z,70
2017-10-04T08:57:25.151Z,65
2017-10-04T08:58:05.734Z,70
2017-10-04T08:58:46.410Z,75
2017-10-04T08:59:27.571Z,70
2017-10-04T09:00:08.136Z,70
2017-10-04T09:00:48.727Z,75
2017-10-04T09:01:29.697Z,80
2017-10-04T09:02:10.167Z,85
2017-10-04T09:02:50.738Z,85
2017-10-04T09:03:31.315Z,90
2017-10-04T09:04:11.902Z,80
2017-10-04T09:04:52.639Z,75
2017-10-04T09:05:33.251Z,80
2017-10-04T09:06:13.838Z,85
2017-10-04T09:06:54.437Z,90
2017-10-04T09:07:35.070Z,90
2017-10-04T09:08:15.740Z,95
2017-10-04T09:08:56.352Z,95
2017-10-04T09:09:36.959Z,100
2017-10-04T09:10:17.648Z,105
2017-10-04T09:10:58.225Z,110
2017-10-04T09:11:38.809Z,110
2017-10-04T09:12:19.393Z,110
2017-10-04T09:13:00.035Z,115
2017-10-04T09:13:40.654Z,115
2017-10-04T09:14:21.237Z,110
2017-10-04T09:15:01.832Z,110
2017-10-04T09:15:42.471Z,110
2017-10-04T09:16:23.036Z,100
2017-10-04T09:17:03.623Z,95
2017-10-04T09:17:44.188Z,90
2017-10-04T09:18:24.788Z,90
2017-10-04T09:19:05.402Z,95
2017-10-04T09:19:46.032Z,95
2017-10-04T09:20:26.646Z,95
2017-10-04T09:21:07.266Z,100
2017-10-04T09:21:47.854Z,105
2017-10-04T09:22:28.474Z,115
2017-10-04T09:23:09.174Z,130
2017-10-04T09:23:49.702Z,140
2017-10-04T09:24:30.270Z,145
2017-10-04T09:25:10.901Z,150
2017-10-04T09:25:51.497Z,160
2017-10-04T09:26:32.114Z,160
2017-10-04T09:27:12.741Z,160
2017-10-04T09:27:53.331Z,165
2017-10-04T09:28:33.978Z,170
2017-10-04T09:29:14.536Z,175
2017-10-04T09:29:55.136Z,165
2017-10-04T09:30:35.760Z,160
2017-10-04T09:31:16.339Z,155
2017-10-04T09:31:56.914Z,155
2017-10-04T09:32:37.569Z,150
2017-10-04T09:33:18.161Z,145
2017-10-04T09:33:58.746Z,145
2017-10-04T09:34:39.354Z,140
2017-10-04T09:35:19.979Z,140
2017-10-04T09:36:00.820Z,130
2017-10-04T09:36:41.297Z,125
2017-10-04T09:37:21.893Z,125
2017-10-04T09:38:02.527Z,125
2017-10-04T09:38:43.119Z,125
2017-10-04T09:39:23.707Z,125
2017-10-04T09:40:04.312Z,125
2017-10-04T09:40:45.060Z,120
2017-10-04T09:41:25.676Z,115
2017-10-04T09:42:06.279Z,115
2017-10-04T09:42:47.014Z,100
2017-10-04T09:43:27.618Z,90
2017-10-04T09:44:08.211Z,90
2017-10-04T09:44:48.849Z,105
2017-10-04T09:45:29.440Z,105
2017-10-04T09:46:10.078Z,110
2017-10-04T09:46:50.682Z,115
2017-10-04T09:47:31.291Z,110
2017-10-04T09:48:11.908Z,100
2017-10-04T09:48:52.516Z,95
2017-10-04T09:49:33.120Z,90
2017-10-04T09:50:13.715Z,90
2017-10-04T09:50:54.310Z,90
2017-10-04T09:51:34.892Z,85
2017-10-04T09:52:15.487Z,85
2017-10-04T09:52:56.078Z,90
2017-10-04T09:53:36.665Z,95
2017-10-04T09:54:17.248Z,85
2017-10-04T09:54:57.902Z,75
2017-10-04T09:55:38.462Z,75
2017-10-04T09:56:19.049Z,75
2017-10-04T09:56:59.685Z,75
2017-10-04T09:57:40.265Z,75
2017-10-04T09:58:20.833Z,90
2017-10-04T09:59:01.505Z,90
2017-10-04T09:59:42.073Z,90
2017-10-04T10:00:22.703Z,95
2017-10-04T10:01:03.278Z,75
2017-10-04T10:01:43.892Z,70
2017-10-04T10:02:24.462Z,70
2017-10-04T10:03:05.114Z,70
2017-10-04T10:03:45.772Z,60
2017-10-04T10:04:26.483Z,45
2017-10-04T10:05:06.999Z,40
2017-10-04T10:05:47.641Z,50
2017-10-04T10:06:28.252Z,50